createdAt,value
2023-04-11T00:00:25.738Z,65.5
2023-04-11T00:01:42.073Z,65.9
2023-04-11T00:02:57.373Z,66.1
2023-04-11T00:04:13.639Z,66.1
2023-04-11T00:05:29.964Z,66.2
2023-04-11T00:06:46.219Z,66.1
2023-04-11T00:08:02.521Z,66.1
2023-04-11T00:09:18.850Z,66.2
2023-04-11T00:10:35.136Z,66.2
2023-04-11T00:11:51.403Z,66.3
2023-04-11T00:13:07.685Z,66.5
2023-04-11T00:14:23.981Z,66.3
2023-04-11T00:15:40.281Z,66.2
2023-04-11T00:16:56.568Z,66.5
2023-04-11T00:18:12.868Z,66.1
2023-04-11T00:19:28.174Z,66.4
2023-04-11T00:20:44.480Z,66.7
2023-04-11T00:22:00.800Z,66.7
2023-04-11T00:23:17.060Z,66.5
2023-04-11T00:24:33.347Z,66.3
2023-04-11T00:25:49.682Z,66.2
2023-04-11T00:27:05.948Z,66.4
2023-04-11T00:28:22.250Z,65.8
2023-04-11T00:29:38.526Z,66.3
2023-04-11T00:30:54.820Z,66.4
2023-04-11T00:32:11.120Z,66.1
2023-04-11T00:33:27.408Z,66.2
2023-04-11T00:34:43.741Z,66.6
2023-04-11T00:35:59.023Z,66.6
2023-04-11T00:37:15.310Z,66.5
2023-04-11T00:38:31.646Z,66.7
2023-04-11T00:39:47.907Z,66.6
2023-04-11T00:41:04.226Z,66.5
2023-04-11T00:42:20.488Z,66.7
2023-04-11T00:43:36.782Z,66.4
2023-04-11T00:44:53.000Z,66.6
2023-04-11T00:46:09.374Z,66.4
2023-04-11T00:47:25.704Z,66.2
2023-04-11T00:48:41.954Z,66.2
2023-04-11T00:49:58.263Z,65.9
2023-04-11T00:51:14.593Z,65.7
2023-04-11T00:52:29.867Z,65.3
2023-04-11T00:53:46.191Z,65
2023-04-11T00:55:02.451Z,64.8
2023-04-11T00:56:18.747Z,65.1
2023-04-11T00:57:35.039Z,64.9
2023-04-11T00:58:51.323Z,64.6
2023-04-11T01:00:07.658Z,64.9
2023-04-11T01:01:23.918Z,64.8
2023-04-11T01:02:40.220Z,64.6
2023-04-11T01:03:56.516Z,64.9
2023-04-11T01:05:12.000Z,64.6
2023-04-11T01:06:29.098Z,64.5
2023-04-11T01:07:45.379Z,64.6
2023-04-11T01:09:00.695Z,64.7
2023-04-11T01:10:17.002Z,64.6
2023-04-11T01:11:33.318Z,64.8
2023-04-11T01:12:49.574Z,64.7
2023-04-11T01:14:05.871Z,64.6
2023-04-11T01:15:22.160Z,64.5
2023-04-11T01:16:38.459Z,64.7
2023-04-11T01:17:54.793Z,64.5
2023-04-11T01:19:11.088Z,64.2
2023-04-11T01:20:27.380Z,64.2
2023-04-11T01:21:43.000Z,64.2
2023-04-11T01:22:59.000Z,64.6
2023-04-11T01:24:16.269Z,64.8
2023-04-11T01:25:31.000Z,64.4
2023-04-11T01:26:47.830Z,64.6
2023-04-11T01:28:04.127Z,64.5
2023-04-11T01:29:20.419Z,64.2
2023-04-11T01:30:36.712Z,63.6
2023-04-11T01:31:53.005Z,63.4
2023-04-11T01:33:09.310Z,63.5
2023-04-11T01:34:25.635Z,62.9
2023-04-11T01:35:41.892Z,63.3
2023-04-11T01:36:58.220Z,62.9
2023-04-11T01:38:14.471Z,62.8
2023-04-11T01:39:30.806Z,62.5
2023-04-11T01:40:47.064Z,62.7
2023-04-11T01:42:02.377Z,62.7
2023-04-11T01:43:18.674Z,63.1
2023-04-11T01:44:34.000Z,63.1
2023-04-11T01:45:51.268Z,62.9
2023-04-11T01:47:07.583Z,63
2023-04-11T01:48:23.000Z,63.1
2023-04-11T01:49:40.134Z,62.9
2023-04-11T01:50:56.432Z,62.6
2023-04-11T01:52:12.766Z,62.4
2023-04-11T01:53:29.021Z,62.1
2023-04-11T01:54:45.321Z,61.8
2023-04-11T01:56:01.606Z,61
2023-04-11T01:57:17.950Z,61
2023-04-11T01:58:33.209Z,60.1
2023-04-11T01:59:49.554Z,59.4
2023-04-11T02:01:05.000Z,59.6
2023-04-11T02:02:22.087Z,59.6
2023-04-11T02:03:38.432Z,59.4
2023-04-11T02:04:54.719Z,59.4
2023-04-11T02:06:10.986Z,60
2023-04-11T02:07:27.279Z,60.4
2023-04-11T02:08:43.563Z,60.7
2023-04-11T02:09:59.859Z,61.8
2023-04-11T02:11:16.145Z,62.8
2023-04-11T02:12:32.444Z,64.6
2023-04-11T02:13:48.752Z,66.3
2023-04-11T02:15:04.051Z,67.8
2023-04-11T02:16:20.350Z,70
2023-04-11T02:17:36.652Z,71.1
2023-04-11T02:18:52.939Z,73.7
2023-04-11T02:20:09.000Z,75.5
2023-04-11T02:21:25.000Z,77.9
2023-04-11T02:22:41.000Z,78.7
2023-04-11T02:23:58.106Z,80.4
2023-04-11T02:25:14.396Z,82
2023-04-11T02:26:30.697Z,82.7
2023-04-11T02:27:46.995Z,83.5
2023-04-11T02:29:03.279Z,84
2023-04-11T02:30:19.590Z,84.7
2023-04-11T02:31:34.893Z,85.1
2023-04-11T02:32:51.192Z,85.2
2023-04-11T02:34:07.478Z,86.1
2023-04-11T02:35:23.765Z,86.4
2023-04-11T02:36:40.072Z,87
2023-04-11T02:37:56.354Z,87.5
2023-04-11T02:39:12.655Z,87.7
2023-04-11T02:40:28.950Z,88.5
2023-04-11T02:41:45.243Z,89
2023-04-11T02:43:01.535Z,88.7
2023-04-11T02:44:17.830Z,89.3
2023-04-11T02:45:34.118Z,90
2023-04-11T02:46:50.412Z,90.4
2023-04-11T02:48:05.724Z,90.4
2023-04-11T02:49:22.000Z,90.6
2023-04-11T02:50:38.316Z,91.5
2023-04-11T02:51:54.609Z,91.3
2023-04-11T02:53:10.000Z,91.7
2023-04-11T02:54:27.198Z,91.9
2023-04-11T02:55:43.503Z,91.8
2023-04-11T02:56:59.785Z,92.1
2023-04-11T02:58:16.076Z,92.1
2023-04-11T02:59:32.000Z,91.5
2023-04-11T03:00:48.664Z,92.1
2023-04-11T03:02:04.968Z,92.6
2023-04-11T03:03:21.263Z,92.2
2023-04-11T03:04:36.000Z,93
2023-04-11T03:05:52.858Z,92.4
2023-04-11T03:07:09.150Z,92.8
2023-04-11T03:08:25.451Z,92.9
2023-04-11T03:09:41.744Z,93.5
2023-04-11T03:10:58.033Z,93
2023-04-11T03:12:14.321Z,93
2023-04-11T03:13:30.622Z,93.7
2023-04-11T03:14:46.909Z,93.8
2023-04-11T03:16:03.000Z,94.5
2023-04-11T03:17:19.502Z,94.8
2023-04-11T03:18:35.790Z,94.7
2023-04-11T03:19:52.086Z,95.1
2023-04-11T03:21:07.391Z,95.6
2023-04-11T03:22:23.700Z,95.9
2023-04-11T03:23:39.989Z,96.1
2023-04-11T03:24:56.276Z,95.8
2023-04-11T03:26:12.572Z,96
2023-04-11T03:27:28.871Z,95.9
2023-04-11T03:28:44.193Z,95.9
2023-04-11T03:30:00.478Z,96.4
2023-04-11T03:31:16.771Z,96.5
2023-04-11T03:32:33.064Z,95.9
2023-04-11T03:33:49.361Z,95.6
2023-04-11T03:35:05.643Z,95
2023-04-11T03:36:21.950Z,95.3
2023-04-11T03:37:38.246Z,95.6
2023-04-11T03:38:54.533Z,95.3
2023-04-11T03:40:10.830Z,95.1
2023-04-11T03:41:27.128Z,94.7
2023-04-11T03:42:43.000Z,94.1
2023-04-11T03:43:59.705Z,94.7
2023-04-11T03:45:15.019Z,94.5
2023-04-11T03:46:31.321Z,94
2023-04-11T03:47:47.605Z,94.9
2023-04-11T03:49:03.898Z,94.6
2023-04-11T03:50:20.183Z,94.5
2023-04-11T03:51:36.480Z,94.4
2023-04-11T03:52:52.000Z,94.2
2023-04-11T03:54:09.083Z,94.3
2023-04-11T03:55:25.365Z,94
2023-04-11T03:56:41.661Z,94.1
2023-04-11T03:57:57.951Z,94
2023-04-11T03:59:14.247Z,93.8
2023-04-11T04:00:30.545Z,94.1
2023-04-11T04:01:45.863Z,94.2
2023-04-11T04:03:02.137Z,94.2
2023-04-11T04:04:18.439Z,93.6
2023-04-11T04:05:34.738Z,94
2023-04-11T04:06:51.033Z,93.6
2023-04-11T04:08:07.280Z,93.2
2023-04-11T04:09:23.575Z,93.7
2023-04-11T04:10:39.880Z,93.7
2023-04-11T04:11:56.107Z,93.2
2023-04-11T04:13:12.363Z,93.5
2023-04-11T04:14:28.601Z,93.9
2023-04-11T04:15:44.883Z,94.3
2023-04-11T04:17:01.133Z,94.5
2023-04-11T04:18:16.388Z,94.5
2023-04-11T04:19:32.632Z,95
2023-04-11T04:20:48.879Z,94.7
2023-04-11T04:22:05.108Z,94.9
2023-04-11T04:23:21.355Z,94.9
2023-04-11T04:24:37.594Z,94.8
2023-04-11T04:25:53.830Z,94.8
2023-04-11T04:27:10.083Z,95.3
2023-04-11T04:28:26.320Z,95.2
2023-04-11T04:29:42.547Z,94.7
2023-04-11T04:30:58.788Z,94.6
2023-04-11T04:32:15.026Z,94.6
2023-04-11T04:33:31.272Z,94
2023-04-11T04:34:46.533Z,94.2
2023-04-11T04:36:02.773Z,93.7
2023-04-11T04:37:19.002Z,93.6
2023-04-11T04:38:35.269Z,93
2023-04-11T04:39:51.485Z,92.6
2023-04-11T04:41:07.722Z,91.7
2023-04-11T04:42:24.000Z,91.8
2023-04-11T04:43:40.000Z,91.9
2023-04-11T04:44:56.449Z,91.8
2023-04-11T04:46:12.681Z,91.4
2023-04-11T04:47:28.925Z,91.9
2023-04-11T04:48:45.000Z,91
2023-04-11T04:50:01.403Z,91
2023-04-11T04:51:16.665Z,90.6
2023-04-11T04:52:32.910Z,91.2
2023-04-11T04:53:49.154Z,90.8
2023-04-11T04:55:05.377Z,91
2023-04-11T04:56:21.616Z,90.1
2023-04-11T04:57:37.871Z,90
2023-04-11T04:58:54.093Z,90.7
2023-04-11T05:00:10.340Z,89.4
2023-04-11T05:01:26.579Z,89.5
2023-04-11T05:02:42.815Z,89.8
2023-04-11T05:03:59.061Z,89.6
2023-04-11T05:05:15.296Z,89.6
2023-04-11T05:06:31.539Z,89.4
2023-04-11T05:07:46.792Z,89.7
2023-04-11T05:09:03.041Z,89
2023-04-11T05:10:19.279Z,89.3
2023-04-11T05:11:35.514Z,89.2
2023-04-11T05:12:51.762Z,89.1
2023-04-11T05:14:08.001Z,88.8
2023-04-11T05:15:24.253Z,89.1
2023-04-11T05:16:40.473Z,89
2023-04-11T05:17:56.714Z,89.4
2023-04-11T05:19:12.957Z,89.5
2023-04-11T05:20:29.195Z,90.3
2023-04-11T05:21:45.441Z,90
2023-04-11T05:23:01.683Z,90.3
2023-04-11T05:24:16.943Z,90.9
2023-04-11T05:25:33.173Z,91.4
2023-04-11T05:26:49.429Z,91.7
2023-04-11T05:28:05.676Z,92
2023-04-11T05:29:21.905Z,92.3
2023-04-11T05:30:38.144Z,93.1
2023-04-11T05:31:54.376Z,94.1
2023-04-11T05:33:10.628Z,94.4
2023-04-11T05:34:26.857Z,94.9
2023-04-11T05:35:43.095Z,95.5
2023-04-11T05:36:59.335Z,95.9
2023-04-11T05:38:15.587Z,95.6
2023-04-11T05:39:31.823Z,95.8
2023-04-11T05:40:48.053Z,95.8
2023-04-11T05:42:03.319Z,96.3
2023-04-11T05:43:19.556Z,96.3
2023-04-11T05:44:35.805Z,96.2
2023-04-11T05:45:52.035Z,96.2
2023-04-11T05:47:08.289Z,96.3
2023-04-11T05:48:24.511Z,96.3
2023-04-11T05:49:40.763Z,96.6
2023-04-11T05:50:56.992Z,96.6
2023-04-11T05:52:13.238Z,97.1
2023-04-11T05:53:29.487Z,97.1
2023-04-11T05:54:45.732Z,96.9
2023-04-11T05:56:01.970Z,97
2023-04-11T05:57:18.209Z,96.8
2023-04-11T05:58:33.450Z,97
2023-04-11T05:59:49.702Z,96.5
2023-04-11T06:01:05.938Z,96.5
2023-04-11T06:02:22.176Z,96.5
2023-04-11T06:03:38.424Z,96.7
2023-04-11T06:04:54.651Z,96.9
2023-04-11T06:06:10.893Z,96.6
2023-04-11T06:07:27.155Z,96.9
2023-04-11T06:08:43.397Z,96.8
2023-04-11T06:09:59.627Z,96.7
2023-04-11T06:11:15.859Z,96.3
2023-04-11T06:12:32.096Z,96.5
2023-04-11T06:13:48.355Z,96.3
2023-04-11T06:15:03.597Z,96.5
2023-04-11T06:16:19.852Z,96.5
2023-04-11T06:17:36.071Z,96.1
2023-04-11T06:18:52.325Z,96.5
2023-04-11T06:20:08.558Z,96.5
2023-04-11T06:21:24.791Z,96.3
2023-04-11T06:22:41.043Z,96.5
2023-04-11T06:23:57.270Z,96.5
2023-04-11T06:25:13.525Z,96.5
2023-04-11T06:26:29.763Z,96.5
2023-04-11T06:27:46.000Z,96.3
2023-04-11T06:29:02.248Z,96.5
2023-04-11T06:30:18.470Z,96.7
2023-04-11T06:31:33.750Z,96.3
2023-04-11T06:32:49.980Z,96.5
2023-04-11T06:34:06.216Z,96.5
2023-04-11T06:35:22.456Z,96.5
2023-04-11T06:36:38.701Z,96.3
2023-04-11T06:37:54.946Z,96.5
2023-04-11T06:39:11.171Z,96.5
2023-04-11T06:40:27.428Z,96.5
2023-04-11T06:41:43.000Z,96.3
2023-04-11T06:42:59.901Z,96.2
2023-04-11T06:44:16.140Z,96.2
2023-04-11T06:45:32.368Z,95.9
2023-04-11T06:46:48.617Z,95.9
2023-04-11T06:48:03.000Z,96
2023-04-11T06:49:20.106Z,95.9
2023-04-11T06:50:36.349Z,95.5
2023-04-11T06:51:52.585Z,95.5
2023-04-11T06:53:08.832Z,95.3
2023-04-11T06:54:25.082Z,95.3
2023-04-11T06:55:41.318Z,95.2
2023-04-11T06:56:57.565Z,95.2
2023-04-11T06:58:13.799Z,95.4
2023-04-11T06:59:30.033Z,94.9
2023-04-11T07:00:46.275Z,94.8
2023-04-11T07:02:02.533Z,95.1
2023-04-11T07:03:18.763Z,95.5
2023-04-11T07:04:34.019Z,95.1
2023-04-11T07:05:50.270Z,94.4
2023-04-11T07:07:06.494Z,94.5
2023-04-11T07:08:22.000Z,94.6
2023-04-11T07:09:38.973Z,94.1
2023-04-11T07:10:55.215Z,93.5
2023-04-11T07:12:11.456Z,93.6
2023-04-11T07:13:27.686Z,93
2023-04-11T07:14:43.929Z,92.2
2023-04-11T07:16:00.169Z,92.4
2023-04-11T07:17:16.419Z,91.8
2023-04-11T07:18:32.000Z,92.2
2023-04-11T07:19:48.888Z,91.8
2023-04-11T07:21:04.164Z,91.5
2023-04-11T07:22:20.392Z,91.6
2023-04-11T07:23:36.632Z,91.6
2023-04-11T07:24:52.875Z,91.4
2023-04-11T07:26:09.106Z,91.9
2023-04-11T07:27:25.348Z,91.6
2023-04-11T07:28:41.593Z,90.7
2023-04-11T07:29:57.831Z,90.7
2023-04-11T07:31:14.076Z,90.8
2023-04-11T07:32:30.321Z,90.7
2023-04-11T07:33:46.551Z,90.9
2023-04-11T07:35:02.804Z,90.3
2023-04-11T07:36:19.043Z,90
2023-04-11T07:37:34.299Z,90.1
2023-04-11T07:38:50.529Z,90.2
2023-04-11T07:40:06.781Z,89.5
2023-04-11T07:41:23.025Z,89.3
2023-04-11T07:42:39.261Z,89.5
2023-04-11T07:43:54.000Z,88.7
2023-04-11T07:45:10.765Z,89
2023-04-11T07:46:27.005Z,88.9
2023-04-11T07:47:43.000Z,88.9
2023-04-11T07:48:59.490Z,89.1
2023-04-11T07:50:15.732Z,88.9
2023-04-11T07:51:31.969Z,88.8
2023-04-11T07:52:48.200Z,89
2023-04-11T07:54:04.431Z,88.1
2023-04-11T07:55:20.695Z,88.2
2023-04-11T07:56:36.920Z,87.9
2023-04-11T07:57:53.170Z,87.7
2023-04-11T07:59:09.412Z,88
2023-04-11T08:00:24.666Z,86.9
2023-04-11T08:01:40.909Z,86.8
2023-04-11T08:02:57.149Z,87
2023-04-11T08:04:13.371Z,87.2
2023-04-11T08:05:29.624Z,87.1
2023-04-11T08:06:45.850Z,87.4
2023-04-11T08:08:02.095Z,86.7
2023-04-11T08:09:18.338Z,85.4
2023-04-11T08:10:34.575Z,85.6
2023-04-11T08:11:50.826Z,85.7
2023-04-11T08:13:07.061Z,84.8
2023-04-11T08:14:23.305Z,83.7
2023-04-11T08:15:39.536Z,83.3
2023-04-11T08:16:54.805Z,82.4
2023-04-11T08:18:11.041Z,81.9
2023-04-11T08:19:27.285Z,82.1
2023-04-11T08:20:43.000Z,81.3
2023-04-11T08:21:59.749Z,80.8
2023-04-11T08:23:15.997Z,80.6
2023-04-11T08:24:32.239Z,80.2
2023-04-11T08:25:48.485Z,80.2
2023-04-11T08:27:04.719Z,80
2023-04-11T08:28:20.955Z,80.8
2023-04-11T08:29:37.205Z,80.5
2023-04-11T08:30:53.441Z,80
2023-04-11T08:32:09.688Z,78.5
2023-04-11T08:33:24.928Z,79.6
2023-04-11T08:34:41.178Z,79.2
2023-04-11T08:35:57.000Z,79
2023-04-11T08:37:13.649Z,78.6
2023-04-11T08:38:29.905Z,79.1
2023-04-11T08:39:46.135Z,78.9
2023-04-11T08:41:02.383Z,78
2023-04-11T08:42:18.619Z,77.5
2023-04-11T08:43:34.857Z,77.3
2023-04-11T08:44:51.107Z,77.8
2023-04-11T08:46:07.349Z,78.3
2023-04-11T08:47:23.584Z,78.1
2023-04-11T08:48:39.819Z,78.7
2023-04-11T08:49:55.085Z,76.2
2023-04-11T08:51:11.328Z,76.8
2023-04-11T08:52:27.550Z,77.6
2023-04-11T08:53:43.792Z,76.7
2023-04-11T08:55:00.044Z,76.6
2023-04-11T08:56:16.281Z,75.7
2023-04-11T08:57:32.518Z,74.7
2023-04-11T08:58:48.754Z,74.3
2023-04-11T09:00:05.000Z,74.3
2023-04-11T09:01:21.234Z,74.2
2023-04-11T09:02:37.479Z,75.1
2023-04-11T09:03:53.723Z,74.5
2023-04-11T09:05:09.950Z,74.2
2023-04-11T09:06:25.223Z,73
2023-04-11T09:07:41.446Z,73.7
2023-04-11T09:08:57.696Z,73.5
2023-04-11T09:10:13.934Z,72.7
2023-04-11T09:11:30.191Z,71.2
2023-04-11T09:12:46.409Z,71.8
2023-04-11T09:14:02.646Z,71
2023-04-11T09:15:18.897Z,71.5
2023-04-11T09:16:35.131Z,72.1
2023-04-11T09:17:51.380Z,71.2
2023-04-11T09:19:07.615Z,70.9
2023-04-11T09:20:23.848Z,69.9
2023-04-11T09:21:40.081Z,67.8
2023-04-11T09:22:55.338Z,66.1
2023-04-11T09:24:11.589Z,67.2
2023-04-11T09:25:27.824Z,68.3
2023-04-11T09:26:44.057Z,69.3
2023-04-11T09:28:00.322Z,69.4
2023-04-11T09:29:16.545Z,70.2
2023-04-11T09:30:32.791Z,70.3
2023-04-11T09:31:49.016Z,71.2
2023-04-11T09:33:05.269Z,71.3
2023-04-11T09:34:21.500Z,71.4
2023-04-11T09:35:37.000Z,72.4
2023-04-11T09:36:53.987Z,73.6
2023-04-11T09:38:10.221Z,72.9
2023-04-11T09:39:25.486Z,73.3
2023-04-11T09:40:41.715Z,73.4
2023-04-11T09:41:57.977Z,73.4
2023-04-11T09:43:14.200Z,71
2023-04-11T09:44:30.446Z,69.6
2023-04-11T09:45:46.686Z,69.4
2023-04-11T09:47:02.922Z,68.9
2023-04-11T09:48:19.162Z,68
2023-04-11T09:49:35.406Z,66.8
2023-04-11T09:50:51.651Z,67.5
2023-04-11T09:52:07.884Z,67.9
2023-04-11T09:53:24.112Z,66.4
2023-04-11T09:54:40.373Z,65.8
2023-04-11T09:55:55.618Z,63.9
2023-04-11T09:57:11.863Z,62.9
2023-04-11T09:58:28.109Z,62.2
2023-04-11T09:59:44.339Z,62
2023-04-11T10:01:00.580Z,62.3
2023-04-11T10:02:16.826Z,63.7
2023-04-11T10:03:33.058Z,64.9
2023-04-11T10:04:49.298Z,63.4
2023-04-11T10:06:05.528Z,63.6
2023-04-11T10:07:21.786Z,64.4
2023-04-11T10:08:38.010Z,64.1
2023-04-11T10:09:54.270Z,63
2023-04-11T10:11:10.493Z,66
2023-04-11T10:12:25.740Z,69
2023-04-11T10:13:41.997Z,71.4
2023-04-11T10:14:58.226Z,73.9
2023-04-11T10:16:14.472Z,75.3
2023-04-11T10:17:30.718Z,78.5
2023-04-11T10:18:46.949Z,81.1
2023-04-11T10:20:03.186Z,83
2023-04-11T10:21:19.436Z,84.2
2023-04-11T10:22:35.000Z,84.2
2023-04-11T10:23:51.912Z,85.2
2023-04-11T10:25:08.160Z,85.2
2023-04-11T10:26:24.379Z,85.8
2023-04-11T10:27:40.633Z,86.6
2023-04-11T10:28:55.896Z,85.9
2023-04-11T10:30:12.120Z,85.9
2023-04-11T10:31:28.368Z,87
2023-04-11T10:32:44.617Z,87.3
2023-04-11T10:34:00.850Z,87.8
2023-04-11T10:35:17.079Z,85.9
2023-04-11T10:36:33.000Z,85.1
2023-04-11T10:37:49.570Z,85.4
2023-04-11T10:39:05.810Z,85.5
2023-04-11T10:40:22.044Z,84.8
2023-04-11T10:41:38.303Z,84.5
2023-04-11T10:42:54.534Z,83.1
2023-04-11T10:44:10.774Z,82
2023-04-11T10:45:26.012Z,81.8
2023-04-11T10:46:42.270Z,82.2
2023-04-11T10:47:58.504Z,81.1
2023-04-11T10:49:14.751Z,79.3
2023-04-11T10:50:30.980Z,79
2023-04-11T10:51:47.217Z,77.7
2023-04-11T10:53:03.470Z,76.8
2023-04-11T10:54:19.706Z,73.4
2023-04-11T10:55:35.941Z,72.3
2023-04-11T10:56:52.190Z,70.8
2023-04-11T10:58:08.415Z,70.9
2023-04-11T10:59:24.657Z,70.7
2023-04-11T11:00:40.911Z,68.9
2023-04-11T11:01:56.157Z,70.8
2023-04-11T11:03:12.405Z,71
2023-04-11T11:04:28.646Z,71.2
2023-04-11T11:05:44.886Z,71.1
2023-04-11T11:07:01.117Z,69.9
2023-04-11T11:08:17.369Z,68.5
2023-04-11T11:09:33.000Z,68.8
2023-04-11T11:10:49.837Z,68.8
2023-04-11T11:12:06.075Z,66.9
2023-04-11T11:13:22.325Z,68.5
2023-04-11T11:14:38.551Z,67.5
2023-04-11T11:15:54.789Z,65.6
2023-04-11T11:17:11.030Z,64
2023-04-11T11:18:26.296Z,65.7
2023-04-11T11:19:42.529Z,66.9
2023-04-11T11:20:58.768Z,66.1
2023-04-11T11:22:15.004Z,66.5
2023-04-11T11:23:31.260Z,66
2023-04-11T11:24:47.493Z,67
2023-04-11T11:26:03.733Z,67.7
2023-04-11T11:27:19.982Z,68.2
2023-04-11T11:28:36.214Z,67.6
2023-04-11T11:29:52.446Z,67.9
2023-04-11T11:31:08.692Z,67.2
2023-04-11T11:32:24.937Z,64.8
2023-04-11T11:33:41.159Z,63.5
2023-04-11T11:34:56.424Z,61.9
2023-04-11T11:36:12.672Z,61.6
2023-04-11T11:37:28.906Z,61.2
2023-04-11T11:38:45.000Z,63
2023-04-11T11:40:01.385Z,60.9
2023-04-11T11:41:17.620Z,61.1
2023-04-11T11:42:33.859Z,63.2
2023-04-11T11:43:50.099Z,62.3
2023-04-11T11:45:06.334Z,63.1
2023-04-11T11:46:22.570Z,62.8
2023-04-11T11:47:38.829Z,62.3
2023-04-11T11:48:55.052Z,63.8
2023-04-11T11:50:11.290Z,63
2023-04-11T11:51:26.561Z,62.8
2023-04-11T11:52:42.785Z,62.7
2023-04-11T11:53:59.035Z,63.3
2023-04-11T11:55:15.260Z,63.3
2023-04-11T11:56:31.000Z,63.3
2023-04-11T11:57:47.747Z,61
2023-04-11T11:59:03.002Z,61.8
2023-04-11T12:00:19.256Z,62.4
2023-04-11T12:01:35.496Z,62.6
2023-04-11T12:02:51.721Z,62.1
2023-04-11T12:04:07.964Z,60.7
2023-04-11T12:05:24.197Z,59.6
2023-04-11T12:06:40.438Z,59.1
2023-04-11T12:07:56.673Z,58.1
2023-04-11T12:09:12.920Z,59.3
2023-04-11T12:10:29.152Z,60.2
2023-04-11T12:11:45.398Z,59.9
2023-04-11T12:13:01.642Z,60.9
2023-04-11T12:14:17.874Z,61
2023-04-11T12:15:33.122Z,61.2
2023-04-11T12:16:49.367Z,61.4
2023-04-11T12:18:05.000Z,61.1
2023-04-11T12:19:21.845Z,62.3
2023-04-11T12:20:38.092Z,61.6
2023-04-11T12:21:54.328Z,60.1
2023-04-11T12:23:10.566Z,59.5
2023-04-11T12:24:26.812Z,59.8
2023-04-11T12:25:43.052Z,59.5
2023-04-11T12:26:59.285Z,60.8
2023-04-11T12:28:15.512Z,63
2023-04-11T12:29:31.754Z,64
2023-04-11T12:30:48.006Z,63.9
2023-04-11T12:32:03.262Z,64.5
2023-04-11T12:33:19.487Z,63.9
2023-04-11T12:34:35.730Z,63.9
2023-04-11T12:35:51.983Z,64.3
2023-04-11T12:37:08.211Z,64.6
2023-04-11T12:38:24.450Z,62.7
2023-04-11T12:39:40.682Z,62.7
2023-04-11T12:40:56.926Z,63.1
2023-04-11T12:42:13.163Z,63.5
2023-04-11T12:43:29.412Z,62.7
2023-04-11T12:44:45.645Z,60.9
2023-04-11T12:46:01.884Z,61.9
2023-04-11T12:47:18.126Z,62.2
2023-04-11T12:48:34.356Z,62.3
2023-04-11T12:49:49.616Z,62.9
2023-04-11T12:51:05.858Z,62.8
2023-04-11T12:52:22.106Z,63.4
2023-04-11T12:53:38.333Z,62.5
2023-04-11T12:54:54.570Z,61.1
2023-04-11T12:56:10.821Z,59.7
2023-04-11T12:57:27.052Z,60.2
2023-04-11T12:58:43.000Z,60.3
2023-04-11T12:59:59.523Z,59.1
2023-04-11T13:01:15.771Z,59.5
2023-04-11T13:02:32.008Z,59.3
2023-04-11T13:03:48.000Z,56.3
2023-04-11T13:05:04.497Z,56.2
2023-04-11T13:06:19.752Z,56.5
2023-04-11T13:07:35.980Z,56.2
2023-04-11T13:08:52.218Z,56.2
2023-04-11T13:10:08.450Z,56
2023-04-11T13:11:24.698Z,55.8
2023-04-11T13:12:40.932Z,55.8
2023-04-11T13:13:57.164Z,56.5
2023-04-11T13:15:13.409Z,56.1
2023-04-11T13:16:29.660Z,56.4
2023-04-11T13:17:45.883Z,57.5
2023-04-11T13:19:02.121Z,57.5
2023-04-11T13:20:18.360Z,56
2023-04-11T13:21:34.601Z,55.8
2023-04-11T13:22:49.866Z,55.1
2023-04-11T13:24:06.101Z,56.5
2023-04-11T13:25:22.331Z,57
2023-04-11T13:26:38.617Z,56.8
2023-04-11T13:27:54.827Z,56.1
2023-04-11T13:29:11.061Z,54
2023-04-11T13:30:27.299Z,53.5
2023-04-11T13:31:43.552Z,54.8
2023-04-11T13:32:59.784Z,53.8
2023-04-11T13:34:16.013Z,54.7
2023-04-11T13:35:32.264Z,56.3
2023-04-11T13:36:48.489Z,56.5
2023-04-11T13:38:04.733Z,58
2023-04-11T13:39:19.989Z,59.5
2023-04-11T13:40:36.241Z,60.6
2023-04-11T13:41:52.460Z,62
2023-04-11T13:43:08.706Z,62.9
2023-04-11T13:44:24.940Z,62.6
2023-04-11T13:45:41.187Z,65.2
2023-04-11T13:46:57.000Z,65.9
2023-04-11T13:48:13.661Z,67.5
2023-04-11T13:49:29.895Z,68.9
2023-04-11T13:50:46.138Z,71.1
2023-04-11T13:52:02.370Z,71.4
2023-04-11T13:53:18.609Z,71.2
2023-04-11T13:54:34.858Z,69.8
2023-04-11T13:55:50.000Z,71.4
2023-04-11T13:57:06.354Z,72.7
2023-04-11T13:58:22.584Z,70.8
2023-04-11T13:59:38.000Z,69.3
2023-04-11T14:00:55.000Z,68.3
2023-04-11T14:02:11.314Z,67.9
2023-04-11T14:03:27.550Z,68.9
2023-04-11T14:04:43.781Z,66.8
2023-04-11T14:06:00.038Z,68
2023-04-11T14:07:16.272Z,68.3
2023-04-11T14:08:32.508Z,69.4
2023-04-11T14:09:48.748Z,66.7
2023-04-11T14:11:05.003Z,67.5
2023-04-11T14:12:21.356Z,66.5
2023-04-11T14:13:37.598Z,65.7
2023-04-11T14:14:53.828Z,64.9
2023-04-11T14:16:10.079Z,64.3
2023-04-11T14:17:26.310Z,63
2023-04-11T14:18:42.557Z,64.3
2023-04-11T14:19:58.790Z,64.6
2023-04-11T14:21:15.040Z,62.8
2023-04-11T14:22:31.283Z,64.9
2023-04-11T14:23:47.509Z,66.4
2023-04-11T14:25:03.758Z,66.4
2023-04-11T14:26:19.990Z,65.8
2023-04-11T14:27:36.225Z,66.2
2023-04-11T14:28:51.475Z,63.1
2023-04-11T14:30:07.729Z,63
2023-04-11T14:31:23.952Z,63.4
2023-04-11T14:32:40.201Z,64.3
2023-04-11T14:33:56.445Z,62.4
2023-04-11T14:35:12.000Z,64.7
2023-04-11T14:36:28.000Z,65.3
2023-04-11T14:37:45.165Z,65.1
2023-04-11T14:39:01.407Z,63.7
2023-04-11T14:40:17.644Z,61.7
2023-04-11T14:41:33.888Z,60.3
2023-04-11T14:42:50.127Z,58.3
2023-04-11T14:44:06.366Z,56.8
2023-04-11T14:45:22.718Z,59.1
2023-04-11T14:46:38.966Z,55.4
2023-04-11T14:47:55.211Z,52.4
2023-04-11T14:49:11.451Z,54
2023-04-11T14:50:27.668Z,49.1
2023-04-11T14:51:43.906Z,45.3
2023-04-11T14:53:00.160Z,46
2023-04-11T14:54:16.392Z,46.2
2023-04-11T14:55:32.629Z,46.3
2023-04-11T14:56:48.872Z,47.7
2023-04-11T14:58:05.111Z,47.1
2023-04-11T14:59:21.355Z,47
2023-04-11T15:00:37.597Z,47
2023-04-11T15:01:52.845Z,45.8
2023-04-11T15:03:09.093Z,45
2023-04-11T15:04:25.325Z,46.5
2023-04-11T15:05:41.552Z,46.6
2023-04-11T15:06:57.793Z,47.7
2023-04-11T15:08:14.027Z,44.5
2023-04-11T15:09:30.285Z,43.5
2023-04-11T15:10:46.518Z,45.6
2023-04-11T15:12:02.747Z,45.9
2023-04-11T15:13:18.981Z,43.2
2023-04-11T15:14:35.226Z,43.2
2023-04-11T15:15:51.464Z,43.8
2023-04-11T15:17:07.705Z,43.1
2023-04-11T15:18:24.065Z,44.2
2023-04-11T15:19:40.309Z,43.8
2023-04-11T15:20:56.546Z,44
2023-04-11T15:22:12.795Z,43.3
2023-04-11T15:23:29.023Z,43.7
2023-04-11T15:24:45.262Z,43
2023-04-11T15:26:01.500Z,43.9
2023-04-11T15:27:17.747Z,43.1
2023-04-11T15:28:33.975Z,43.4
2023-04-11T15:29:50.222Z,42.9
2023-04-11T15:31:06.453Z,43.9
2023-04-11T15:32:22.691Z,43.5
2023-04-11T15:33:38.942Z,43.6
2023-04-11T15:34:54.181Z,44.2
2023-04-11T15:36:10.431Z,44
2023-04-11T15:37:26.667Z,44.7
2023-04-11T15:38:42.904Z,45.1
2023-04-11T15:39:59.141Z,45.6
2023-04-11T15:41:15.398Z,46.5
2023-04-11T15:42:31.618Z,47.4
2023-04-11T15:43:47.850Z,48.3
2023-04-11T15:45:04.105Z,48.5
2023-04-11T15:46:20.333Z,49.6
2023-04-11T15:47:36.598Z,49.5
2023-04-11T15:48:52.824Z,47.7
2023-04-11T15:50:09.065Z,46.7
2023-04-11T15:51:24.324Z,46.9
2023-04-11T15:52:40.572Z,46.1
2023-04-11T15:53:56.798Z,44.4
2023-04-11T15:55:13.035Z,44.8
2023-04-11T15:56:29.270Z,46.3
2023-04-11T15:57:45.518Z,45.6
2023-04-11T15:59:01.757Z,45.4
2023-04-11T16:00:17.997Z,45.5
2023-04-11T16:01:34.247Z,45.4
2023-04-11T16:02:50.489Z,45.5
2023-04-11T16:04:06.726Z,44.9
2023-04-11T16:05:22.952Z,46.2
2023-04-11T16:06:39.213Z,47
2023-04-11T16:07:54.454Z,45.9
2023-04-11T16:09:10.698Z,46.2
2023-04-11T16:10:26.945Z,45.6
2023-04-11T16:11:43.168Z,44.5
2023-04-11T16:12:59.409Z,44.8
2023-04-11T16:14:14.670Z,45.6
2023-04-11T16:15:30.907Z,45.4
2023-04-11T16:16:47.165Z,46.5
2023-04-11T16:18:03.395Z,45.9
2023-04-11T16:19:19.645Z,46
2023-04-11T16:20:35.871Z,45.8
2023-04-11T16:21:52.126Z,42.8
2023-04-11T16:23:08.363Z,43.5
2023-04-11T16:24:24.599Z,42.4
2023-04-11T16:25:40.843Z,42.6
2023-04-11T16:26:57.070Z,42.3
2023-04-11T16:28:13.317Z,42.8
2023-04-11T16:29:29.553Z,42.4
2023-04-11T16:30:44.807Z,43.3
2023-04-11T16:32:01.047Z,44
2023-04-11T16:33:17.277Z,44
2023-04-11T16:34:33.517Z,45
2023-04-11T16:35:49.760Z,45.6
2023-04-11T16:37:06.005Z,45.5
2023-04-11T16:38:22.236Z,45.4
2023-04-11T16:39:38.476Z,45.9
2023-04-11T16:40:54.720Z,45.8
2023-04-11T16:42:10.960Z,45.6
2023-04-11T16:43:27.186Z,46.9
2023-04-11T16:44:43.441Z,46.9
2023-04-11T16:45:59.668Z,47.8
2023-04-11T16:47:14.918Z,47.1
2023-04-11T16:48:31.161Z,48
2023-04-11T16:49:47.395Z,48.4
2023-04-11T16:51:03.637Z,48.6
2023-04-11T16:52:19.875Z,48.6
2023-04-11T16:53:36.121Z,49.1
2023-04-11T16:54:52.352Z,49.2
2023-04-11T16:56:08.595Z,49.6
2023-04-11T16:57:24.000Z,49.7
2023-04-11T16:58:41.080Z,49.6
2023-04-11T16:59:57.308Z,50.1
2023-04-11T17:01:13.545Z,50.7